AXB5860 VIDP-VIAG
Flight info
| Callsign | AXB5860 |
|---|---|
| Flight time | 0h 26m |
| Altitude | 11000 |
| Route | DIG DCT AGG |
| Aircraft | A320/M-SDE3FGHIRWY/LB1 |
Departure
| Time | 2026-05-08 08:51 |
|---|---|
| Airport | Indira Gandhi International Airport (VIDP) |
Arrival
| Time | 2026-05-08 09:18 |
|---|---|
| Airport | Agra Airport / Agra Air Force Station (VIAG) |
| Time | Latitude | Longitude | Altitude | Speed | Heading |
|---|---|---|---|---|---|
| 2026-05-08 08:12 | 28.56109 | 77.08259 | 783 ft | 0 kts | 240° |
| 2026-05-08 08:40 | 28.56115 | 77.08272 | 782 ft | 2 kts | 240° |
| 2026-05-08 08:40 | 28.56123 | 77.08286 | 781 ft | 2 kts | 240° |
| 2026-05-08 08:40 | 28.56130 | 77.08302 | 781 ft | 2 kts | 240° |
| 2026-05-08 08:40 | 28.56136 | 77.08317 | 782 ft | 2 kts | 262° |
| 2026-05-08 08:41 | 28.56136 | 77.08334 | 782 ft | 2 kts | 283° |
| 2026-05-08 08:41 | 28.56131 | 77.08350 | 783 ft | 2 kts | 306° |
| 2026-05-08 08:41 | 28.56121 | 77.08360 | 784 ft | 0 kts | 327° |
| 2026-05-08 08:41 | 28.56115 | 77.08364 | 784 ft | 1 kts | 330° |
| 2026-05-08 08:42 | 28.56115 | 77.08365 | 784 ft | 0 kts | 330° |
| 2026-05-08 08:42 | 28.56115 | 77.08364 | 784 ft | 0 kts | 330° |
| 2026-05-08 08:43 | 28.56133 | 77.08353 | 784 ft | 5 kts | 331° |
| 2026-05-08 08:44 | 28.56169 | 77.08329 | 784 ft | 6 kts | 328° |
| 2026-05-08 08:44 | 28.56210 | 77.08300 | 784 ft | 7 kts | 328° |
| 2026-05-08 08:44 | 28.56260 | 77.08267 | 784 ft | 9 kts | 330° |
| 2026-05-08 08:44 | 28.56309 | 77.08218 | 784 ft | 10 kts | 293° |
| 2026-05-08 08:45 | 28.56328 | 77.08136 | 784 ft | 11 kts | 281° |
| 2026-05-08 08:45 | 28.56298 | 77.08066 | 784 ft | 10 kts | 204° |
| 2026-05-08 08:45 | 28.56218 | 77.08044 | 784 ft | 13 kts | 194° |
| 2026-05-08 08:45 | 28.56124 | 77.08017 | 784 ft | 14 kts | 194° |
| 2026-05-08 08:46 | 28.56017 | 77.07985 | 784 ft | 16 kts | 194° |
| 2026-05-08 08:46 | 28.55901 | 77.07951 | 784 ft | 17 kts | 194° |
| 2026-05-08 08:46 | 28.55783 | 77.07916 | 784 ft | 16 kts | 194° |
| 2026-05-08 08:46 | 28.55669 | 77.07883 | 784 ft | 17 kts | 194° |
| 2026-05-08 08:47 | 28.55551 | 77.07848 | 784 ft | 17 kts | 194° |
| 2026-05-08 08:47 | 28.55430 | 77.07815 | 784 ft | 17 kts | 194° |
| 2026-05-08 08:47 | 28.55316 | 77.07780 | 784 ft | 16 kts | 195° |
| 2026-05-08 08:47 | 28.55209 | 77.07748 | 784 ft | 15 kts | 194° |
| 2026-05-08 08:48 | 28.55110 | 77.07719 | 784 ft | 11 kts | 196° |
| 2026-05-08 08:48 | 28.55064 | 77.07656 | 784 ft | 12 kts | 278° |
| 2026-05-08 08:48 | 28.55087 | 77.07554 | 784 ft | 14 kts | 284° |
| 2026-05-08 08:48 | 28.55114 | 77.07438 | 784 ft | 15 kts | 284° |
| 2026-05-08 08:49 | 28.55141 | 77.07320 | 784 ft | 16 kts | 284° |
| 2026-05-08 08:49 | 28.55169 | 77.07200 | 784 ft | 14 kts | 284° |
| 2026-05-08 08:49 | 28.55195 | 77.07085 | 784 ft | 15 kts | 284° |
| 2026-05-08 08:49 | 28.55222 | 77.06963 | 784 ft | 12 kts | 284° |
| 2026-05-08 08:50 | 28.55210 | 77.06887 | 784 ft | 9 kts | 214° |
| 2026-05-08 08:50 | 28.55142 | 77.06866 | 784 ft | 10 kts | 191° |
| 2026-05-08 08:50 | 28.55066 | 77.06848 | 784 ft | 11 kts | 193° |
| 2026-05-08 08:50 | 28.55017 | 77.06846 | 784 ft | 4 kts | 141° |
| 2026-05-08 08:51 | 28.55000 | 77.06892 | 784 ft | 8 kts | 102° |
| 2026-05-08 08:51 | 28.54939 | 77.07180 | 784 ft | 82 kts | 103° |
| 2026-05-08 08:51 | 28.54730 | 77.08151 | 790 ft | 163 kts | 104° |
| 2026-05-08 08:51 | 28.54438 | 77.09478 | 1402 ft | 185 kts | 104° |
| 2026-05-08 08:52 | 28.54135 | 77.10870 | 2303 ft | 182 kts | 104° |
| 2026-05-08 08:52 | 28.53836 | 77.12275 | 3025 ft | 188 kts | 104° |
| 2026-05-08 08:52 | 28.53313 | 77.13638 | 3686 ft | 197 kts | 131° |
| 2026-05-08 08:52 | 28.52152 | 77.14574 | 4148 ft | 219 kts | 150° |
| 2026-05-08 08:53 | 28.50776 | 77.15471 | 4705 ft | 238 kts | 149° |
| 2026-05-08 08:53 | 28.49294 | 77.16455 | 5239 ft | 257 kts | 149° |
| 2026-05-08 08:53 | 28.47684 | 77.17520 | 5788 ft | 275 kts | 149° |
| 2026-05-08 08:53 | 28.46007 | 77.18627 | 6546 ft | 281 kts | 149° |
| 2026-05-08 08:54 | 28.44335 | 77.19730 | 7355 ft | 285 kts | 150° |
| 2026-05-08 08:54 | 28.42606 | 77.20869 | 8163 ft | 289 kts | 150° |
| 2026-05-08 08:54 | 28.40850 | 77.22026 | 8988 ft | 293 kts | 150° |
| 2026-05-08 08:54 | 28.39081 | 77.23191 | 9773 ft | 298 kts | 150° |
| 2026-05-08 08:55 | 28.37257 | 77.24392 | 10239 ft | 314 kts | 150° |
| 2026-05-08 08:55 | 28.35302 | 77.25677 | 10556 ft | 333 kts | 150° |
| 2026-05-08 08:55 | 28.33219 | 77.27046 | 10683 ft | 356 kts | 150° |
| 2026-05-08 08:55 | 28.31127 | 77.28423 | 10717 ft | 342 kts | 150° |
| 2026-05-08 08:56 | 28.29085 | 77.29767 | 10713 ft | 333 kts | 150° |
| 2026-05-08 08:56 | 28.27097 | 77.31074 | 10695 ft | 332 kts | 150° |
| 2026-05-08 08:56 | 28.25099 | 77.32386 | 10693 ft | 332 kts | 150° |
| 2026-05-08 08:56 | 28.23084 | 77.33710 | 10694 ft | 332 kts | 150° |
| 2026-05-08 08:57 | 28.21092 | 77.35017 | 10697 ft | 331 kts | 150° |
| 2026-05-08 08:57 | 28.19090 | 77.36331 | 10695 ft | 331 kts | 150° |
| 2026-05-08 08:57 | 28.17106 | 77.37632 | 10690 ft | 331 kts | 150° |
| 2026-05-08 08:57 | 28.15095 | 77.38951 | 10698 ft | 332 kts | 150° |
| 2026-05-08 08:58 | 28.13103 | 77.40256 | 10711 ft | 331 kts | 150° |
| 2026-05-08 08:58 | 28.11128 | 77.41550 | 10709 ft | 330 kts | 150° |
| 2026-05-08 08:58 | 28.09134 | 77.42855 | 10711 ft | 330 kts | 150° |
| 2026-05-08 08:58 | 28.07141 | 77.44160 | 10709 ft | 331 kts | 150° |
| 2026-05-08 08:59 | 28.05142 | 77.45467 | 10709 ft | 332 kts | 150° |
| 2026-05-08 08:59 | 28.03133 | 77.46780 | 10704 ft | 331 kts | 150° |
| 2026-05-08 08:59 | 28.01118 | 77.48099 | 10693 ft | 332 kts | 150° |
| 2026-05-08 08:59 | 27.99132 | 77.49395 | 10696 ft | 332 kts | 150° |
| 2026-05-08 09:00 | 27.97128 | 77.50704 | 10685 ft | 333 kts | 151° |
| 2026-05-08 09:00 | 27.95105 | 77.52025 | 10689 ft | 333 kts | 151° |
| 2026-05-08 09:00 | 27.93088 | 77.53341 | 10697 ft | 332 kts | 151° |
| 2026-05-08 09:00 | 27.91094 | 77.54641 | 10695 ft | 331 kts | 151° |
| 2026-05-08 09:01 | 27.89086 | 77.55951 | 10689 ft | 332 kts | 151° |
| 2026-05-08 09:01 | 27.87108 | 77.57240 | 10684 ft | 331 kts | 151° |
| 2026-05-08 09:01 | 27.85116 | 77.58537 | 10680 ft | 330 kts | 151° |
| 2026-05-08 09:01 | 27.83098 | 77.59850 | 10681 ft | 331 kts | 151° |
| 2026-05-08 09:02 | 27.81121 | 77.61138 | 10683 ft | 330 kts | 151° |
| 2026-05-08 09:02 | 27.79120 | 77.62439 | 10674 ft | 330 kts | 151° |
| 2026-05-08 09:02 | 27.77127 | 77.63735 | 10671 ft | 332 kts | 151° |
| 2026-05-08 09:02 | 27.75112 | 77.65044 | 10683 ft | 331 kts | 151° |
| 2026-05-08 09:03 | 27.73129 | 77.66333 | 10683 ft | 330 kts | 151° |
| 2026-05-08 09:03 | 27.71134 | 77.67629 | 10669 ft | 329 kts | 151° |
| 2026-05-08 09:03 | 27.69146 | 77.68919 | 10669 ft | 330 kts | 151° |
| 2026-05-08 09:03 | 27.67147 | 77.70216 | 10668 ft | 331 kts | 152° |
| 2026-05-08 09:04 | 27.65137 | 77.71520 | 10659 ft | 331 kts | 152° |
| 2026-05-08 09:04 | 27.63145 | 77.72811 | 10659 ft | 332 kts | 152° |
| 2026-05-08 09:04 | 27.61158 | 77.74099 | 10655 ft | 330 kts | 152° |
| 2026-05-08 09:04 | 27.59168 | 77.75388 | 10650 ft | 330 kts | 152° |
| 2026-05-08 09:05 | 27.57172 | 77.76680 | 10650 ft | 331 kts | 152° |
| 2026-05-08 09:05 | 27.55187 | 77.77966 | 10552 ft | 323 kts | 152° |
| 2026-05-08 09:05 | 27.53264 | 77.79211 | 10389 ft | 313 kts | 152° |
| 2026-05-08 09:05 | 27.51398 | 77.80418 | 10221 ft | 306 kts | 152° |
| 2026-05-08 09:06 | 27.49574 | 77.81597 | 10057 ft | 302 kts | 152° |
| 2026-05-08 09:06 | 27.47753 | 77.82774 | 9931 ft | 299 kts | 152° |
| 2026-05-08 09:06 | 27.45963 | 77.83930 | 9720 ft | 296 kts | 152° |
| 2026-05-08 09:06 | 27.44157 | 77.85095 | 9560 ft | 295 kts | 152° |
| 2026-05-08 09:07 | 27.42388 | 77.86237 | 9435 ft | 294 kts | 152° |
| 2026-05-08 09:07 | 27.40608 | 77.87385 | 9356 ft | 293 kts | 152° |
| 2026-05-08 09:07 | 27.38831 | 77.88532 | 9273 ft | 293 kts | 152° |
| 2026-05-08 09:07 | 27.37005 | 77.89497 | 9048 ft | 286 kts | 163° |
| 2026-05-08 09:08 | 27.35076 | 77.89856 | 8687 ft | 280 kts | 189° |
| 2026-05-08 09:08 | 27.33310 | 77.89074 | 8344 ft | 272 kts | 217° |
| 2026-05-08 09:08 | 27.32028 | 77.87550 | 8039 ft | 269 kts | 240° |
| 2026-05-08 09:08 | 27.31291 | 77.85660 | 7810 ft | 267 kts | 249° |
| 2026-05-08 09:09 | 27.30618 | 77.83706 | 7435 ft | 265 kts | 248° |
| 2026-05-08 09:09 | 27.29945 | 77.81788 | 7194 ft | 264 kts | 248° |
| 2026-05-08 09:09 | 27.29264 | 77.79874 | 6848 ft | 263 kts | 246° |
| 2026-05-08 09:09 | 27.28248 | 77.78192 | 6671 ft | 260 kts | 221° |
| 2026-05-08 09:10 | 27.26789 | 77.76982 | 6329 ft | 259 kts | 214° |
| 2026-05-08 09:10 | 27.25269 | 77.75944 | 6034 ft | 258 kts | 209° |
| 2026-05-08 09:10 | 27.23665 | 77.75059 | 5754 ft | 256 kts | 204° |
| 2026-05-08 09:10 | 27.21992 | 77.74339 | 5447 ft | 254 kts | 199° |
| 2026-05-08 09:11 | 27.20302 | 77.73798 | 5230 ft | 253 kts | 194° |
| 2026-05-08 09:11 | 27.18571 | 77.73427 | 4947 ft | 254 kts | 189° |
| 2026-05-08 09:11 | 27.16802 | 77.73228 | 4636 ft | 253 kts | 184° |
| 2026-05-08 09:11 | 27.15037 | 77.73207 | 4393 ft | 253 kts | 179° |
| 2026-05-08 09:12 | 27.13273 | 77.73362 | 4122 ft | 253 kts | 174° |
| 2026-05-08 09:12 | 27.11551 | 77.73686 | 3870 ft | 253 kts | 170° |
| 2026-05-08 09:12 | 27.09833 | 77.74186 | 3618 ft | 253 kts | 164° |
| 2026-05-08 09:12 | 27.08168 | 77.74854 | 3307 ft | 253 kts | 159° |
| 2026-05-08 09:13 | 27.06574 | 77.75677 | 3023 ft | 253 kts | 154° |
| 2026-05-08 09:13 | 27.05038 | 77.76662 | 2783 ft | 252 kts | 148° |
| 2026-05-08 09:13 | 27.03688 | 77.77891 | 2542 ft | 259 kts | 128° |
| 2026-05-08 09:13 | 27.02980 | 77.79716 | 2458 ft | 253 kts | 95° |
| 2026-05-08 09:14 | 27.03312 | 77.81582 | 2491 ft | 238 kts | 61° |
| 2026-05-08 09:14 | 27.04262 | 77.82994 | 2522 ft | 219 kts | 46° |
| 2026-05-08 09:14 | 27.05275 | 77.84160 | 2540 ft | 196 kts | 45° |
| 2026-05-08 09:14 | 27.06180 | 77.85186 | 2539 ft | 175 kts | 45° |
| 2026-05-08 09:15 | 27.07037 | 77.86161 | 2528 ft | 174 kts | 45° |
| 2026-05-08 09:15 | 27.07895 | 77.87138 | 2400 ft | 175 kts | 45° |
| 2026-05-08 09:15 | 27.08735 | 77.88100 | 2197 ft | 172 kts | 45° |
| 2026-05-08 09:15 | 27.09564 | 77.89047 | 1984 ft | 169 kts | 45° |
| 2026-05-08 09:16 | 27.10385 | 77.89983 | 1767 ft | 164 kts | 45° |
| 2026-05-08 09:16 | 27.11142 | 77.90843 | 1560 ft | 147 kts | 45° |
| 2026-05-08 09:16 | 27.11848 | 77.91643 | 1361 ft | 143 kts | 45° |
| 2026-05-08 09:16 | 27.12562 | 77.92426 | 1163 ft | 142 kts | 44° |
| 2026-05-08 09:17 | 27.13252 | 77.93201 | 987 ft | 139 kts | 46° |
| 2026-05-08 09:17 | 27.13939 | 77.93979 | 811 ft | 140 kts | 45° |
| 2026-05-08 09:17 | 27.14615 | 77.94756 | 674 ft | 139 kts | 46° |
| 2026-05-08 09:17 | 27.15279 | 77.95522 | 572 ft | 130 kts | 46° |
| 2026-05-08 09:18 | 27.15745 | 77.96062 | 567 ft | 54 kts | 46° |
| 2026-05-08 09:18 | 27.15900 | 77.96223 | 565 ft | 12 kts | 31° |
| 2026-05-08 09:18 | 27.15935 | 77.96251 | 564 ft | 2 kts | 103° |
| 2026-05-08 09:18 | 27.15923 | 77.96257 | 564 ft | 2 kts | 184° |
| 2026-05-08 09:19 | 27.15890 | 77.96231 | 565 ft | 8 kts | 225° |
| 2026-05-08 09:19 | 27.15840 | 77.96171 | 566 ft | 11 kts | 226° |
| 2026-05-08 09:19 | 27.15777 | 77.96115 | 567 ft | 11 kts | 183° |
| 2026-05-08 09:19 | 27.15729 | 77.96175 | 568 ft | 11 kts | 114° |
| 2026-05-08 09:20 | 27.15694 | 77.96258 | 569 ft | 12 kts | 116° |
| 2026-05-08 09:20 | 27.15656 | 77.96343 | 570 ft | 12 kts | 117° |
| 2026-05-08 09:20 | 27.15615 | 77.96435 | 570 ft | 13 kts | 115° |
| 2026-05-08 09:20 | 27.15571 | 77.96516 | 571 ft | 11 kts | 146° |
| 2026-05-08 09:21 | 27.15509 | 77.96514 | 572 ft | 8 kts | 201° |
| 2026-05-08 09:21 | 27.15461 | 77.96490 | 573 ft | 7 kts | 207° |
| 2026-05-08 09:22 | 27.15399 | 77.96453 | 574 ft | 0 kts | 206° |